sensor_id;sensor_type;location;lat;lon;timestamp;P1;durP1;ratioP1;P2;durP2;ratioP2
25365;SDS011;13315;48.274;-1.900;2023-03-03T00:00:53;22.35;;;10.27;;
25365;SDS011;13315;48.274;-1.900;2023-03-03T00:03:21;22.77;;;11.15;;
25365;SDS011;13315;48.274;-1.900;2023-03-03T00:05:47;20.10;;;10.48;;
25365;SDS011;13315;48.274;-1.900;2023-03-03T00:08:14;22.77;;;10.88;;
25365;SDS011;13315;48.274;-1.900;2023-03-03T00:10:40;19.65;;;10.82;;
25365;SDS011;13315;48.274;-1.900;2023-03-03T00:13:12;22.40;;;10.68;;
25365;SDS011;13315;48.274;-1.900;2023-03-03T00:15:39;19.83;;;11.02;;
25365;SDS011;13315;48.274;-1.900;2023-03-03T00:18:10;21.88;;;10.82;;
25365;SDS011;13315;48.274;-1.900;2023-03-03T00:20:45;16.88;;;10.50;;
25365;SDS011;13315;48.274;-1.900;2023-03-03T00:23:18;17.88;;;9.85;;
25365;SDS011;13315;48.274;-1.900;2023-03-03T00:25:45;17.17;;;10.30;;
25365;SDS011;13315;48.274;-1.900;2023-03-03T00:30:50;19.75;;;10.02;;
25365;SDS011;13315;48.274;-1.900;2023-03-03T00:33:25;20.00;;;9.02;;
25365;SDS011;13315;48.274;-1.900;2023-03-03T00:36:19;18.73;;;10.23;;
25365;SDS011;13315;48.274;-1.900;2023-03-03T00:38:47;19.33;;;9.25;;
25365;SDS011;13315;48.274;-1.900;2023-03-03T00:41:24;18.88;;;10.20;;
25365;SDS011;13315;48.274;-1.900;2023-03-03T00:43:51;22.27;;;11.30;;
25365;SDS011;13315;48.274;-1.900;2023-03-03T00:46:19;20.65;;;9.98;;
25365;SDS011;13315;48.274;-1.900;2023-03-03T00:48:46;23.52;;;9.15;;
25365;SDS011;13315;48.274;-1.900;2023-03-03T00:51:23;16.63;;;10.23;;
25365;SDS011;13315;48.274;-1.900;2023-03-03T00:53:50;18.10;;;9.88;;
25365;SDS011;13315;48.274;-1.900;2023-03-03T00:56:16;23.05;;;9.27;;
25365;SDS011;13315;48.274;-1.900;2023-03-03T00:58:42;19.73;;;9.57;;
25365;SDS011;13315;48.274;-1.900;2023-03-03T01:01:10;17.27;;;9.80;;
25365;SDS011;13315;48.274;-1.900;2023-03-03T01:03:36;20.02;;;10.07;;
25365;SDS011;13315;48.274;-1.900;2023-03-03T01:06:02;19.63;;;10.20;;
25365;SDS011;13315;48.274;-1.900;2023-03-03T01:08:29;20.70;;;10.73;;
25365;SDS011;13315;48.274;-1.900;2023-03-03T01:10:55;18.60;;;9.55;;
25365;SDS011;13315;48.274;-1.900;2023-03-03T01:13:23;20.38;;;9.85;;
25365;SDS011;13315;48.274;-1.900;2023-03-03T01:15:49;16.27;;;9.25;;
25365;SDS011;13315;48.274;-1.900;2023-03-03T01:18:15;17.80;;;9.63;;
25365;SDS011;13315;48.274;-1.900;2023-03-03T01:20:41;17.08;;;8.52;;
25365;SDS011;13315;48.274;-1.900;2023-03-03T01:23:07;19.75;;;9.85;;
25365;SDS011;13315;48.274;-1.900;2023-03-03T01:25:34;22.55;;;10.13;;
25365;SDS011;13315;48.274;-1.900;2023-03-03T01:28:00;21.77;;;9.50;;
25365;SDS011;13315;48.274;-1.900;2023-03-03T01:30:26;23.35;;;10.35;;
25365;SDS011;13315;48.274;-1.900;2023-03-03T01:33:06;14.23;;;9.07;;
25365;SDS011;13315;48.274;-1.900;2023-03-03T01:35:32;19.65;;;9.45;;
25365;SDS011;13315;48.274;-1.900;2023-03-03T01:38:00;18.42;;;10.02;;
25365;SDS011;13315;48.274;-1.900;2023-03-03T01:40:28;21.02;;;10.20;;
25365;SDS011;13315;48.274;-1.900;2023-03-03T01:42:54;18.63;;;9.25;;
25365;SDS011;13315;48.274;-1.900;2023-03-03T01:45:27;20.55;;;10.18;;
25365;SDS011;13315;48.274;-1.900;2023-03-03T01:47:58;22.23;;;9.48;;
25365;SDS011;13315;48.274;-1.900;2023-03-03T01:56:27;17.23;;;10.02;;
25365;SDS011;13315;48.274;-1.900;2023-03-03T01:59:13;18.70;;;10.07;;
25365;SDS011;13315;48.274;-1.900;2023-03-03T02:01:54;20.27;;;9.85;;
25365;SDS011;13315;48.274;-1.900;2023-03-03T02:07:06;18.60;;;9.73;;
25365;SDS011;13315;48.274;-1.900;2023-03-03T02:12:25;20.90;;;10.20;;
25365;SDS011;13315;48.274;-1.900;2023-03-03T02:14:53;19.10;;;9.85;;
25365;SDS011;13315;48.274;-1.900;2023-03-03T02:23:22;19.88;;;9.13;;
25365;SDS011;13315;48.274;-1.900;2023-03-03T02:28:22;17.65;;;8.77;;
25365;SDS011;13315;48.274;-1.900;2023-03-03T02:33:24;17.23;;;9.35;;
25365;SDS011;13315;48.274;-1.900;2023-03-03T02:38:31;18.23;;;9.60;;
25365;SDS011;13315;48.274;-1.900;2023-03-03T02:43:52;23.67;;;8.68;;
25365;SDS011;13315;48.274;-1.900;2023-03-03T02:46:21;20.88;;;9.13;;
25365;SDS011;13315;48.274;-1.900;2023-03-03T02:48:52;15.40;;;9.07;;
25365;SDS011;13315;48.274;-1.900;2023-03-03T02:51:26;17.08;;;9.48;;
25365;SDS011;13315;48.274;-1.900;2023-03-03T02:54:06;17.92;;;8.90;;
25365;SDS011;13315;48.274;-1.900;2023-03-03T02:56:34;20.48;;;9.27;;
25365;SDS011;13315;48.274;-1.900;2023-03-03T02:59:02;17.50;;;9.80;;
25365;SDS011;13315;48.274;-1.900;2023-03-03T03:01:29;22.80;;;9.87;;
25365;SDS011;13315;48.274;-1.900;2023-03-03T03:06:59;17.88;;;8.40;;
25365;SDS011;13315;48.274;-1.900;2023-03-03T03:09:31;16.75;;;9.10;;
25365;SDS011;13315;48.274;-1.900;2023-03-03T03:12:00;17.33;;;10.18;;
25365;SDS011;13315;48.274;-1.900;2023-03-03T03:14:34;26.27;;;11.35;;
25365;SDS011;13315;48.274;-1.900;2023-03-03T03:17:08;22.13;;;11.18;;
25365;SDS011;13315;48.274;-1.900;2023-03-03T03:19:43;26.50;;;10.93;;
25365;SDS011;13315;48.274;-1.900;2023-03-03T03:22:12;21.88;;;10.77;;
25365;SDS011;13315;48.274;-1.900;2023-03-03T03:24:49;20.92;;;10.65;;
25365;SDS011;13315;48.274;-1.900;2023-03-03T03:27:22;18.52;;;10.77;;
25365;SDS011;13315;48.274;-1.900;2023-03-03T03:29:56;24.98;;;11.73;;
25365;SDS011;13315;48.274;-1.900;2023-03-03T03:32:28;25.38;;;11.38;;
25365;SDS011;13315;48.274;-1.900;2023-03-03T03:34:57;27.30;;;12.07;;
25365;SDS011;13315;48.274;-1.900;2023-03-03T03:37:31;32.15;;;12.98;;
25365;SDS011;13315;48.274;-1.900;2023-03-03T03:42:48;22.38;;;11.80;;
25365;SDS011;13315;48.274;-1.900;2023-03-03T03:45:17;22.00;;;11.57;;
25365;SDS011;13315;48.274;-1.900;2023-03-03T03:47:43;21.98;;;11.30;;
25365;SDS011;13315;48.274;-1.900;2023-03-03T03:50:18;23.63;;;11.02;;
25365;SDS011;13315;48.274;-1.900;2023-03-03T03:52:47;24.00;;;11.88;;
25365;SDS011;13315;48.274;-1.900;2023-03-03T03:55:18;22.30;;;10.40;;
25365;SDS011;13315;48.274;-1.900;2023-03-03T03:57:44;33.38;;;12.13;;
25365;SDS011;13315;48.274;-1.900;2023-03-03T04:00:16;17.98;;;9.73;;
25365;SDS011;13315;48.274;-1.900;2023-03-03T04:02:59;23.50;;;11.10;;
25365;SDS011;13315;48.274;-1.900;2023-03-03T04:05:43;32.22;;;11.95;;
25365;SDS011;13315;48.274;-1.900;2023-03-03T04:08:19;26.05;;;12.70;;
25365;SDS011;13315;48.274;-1.900;2023-03-03T04:10:45;29.35;;;14.60;;
25365;SDS011;13315;48.274;-1.900;2023-03-03T04:13:11;31.17;;;14.10;;
25365;SDS011;13315;48.274;-1.900;2023-03-03T04:15:38;32.58;;;14.13;;
25365;SDS011;13315;48.274;-1.900;2023-03-03T04:18:05;30.15;;;15.82;;
25365;SDS011;13315;48.274;-1.900;2023-03-03T04:20:36;40.65;;;17.25;;
25365;SDS011;13315;48.274;-1.900;2023-03-03T04:23:04;31.77;;;16.05;;
25365;SDS011;13315;48.274;-1.900;2023-03-03T04:25:31;46.42;;;18.48;;
25365;SDS011;13315;48.274;-1.900;2023-03-03T04:27:58;41.20;;;17.60;;
25365;SDS011;13315;48.274;-1.900;2023-03-03T04:30:24;39.08;;;17.45;;
25365;SDS011;13315;48.274;-1.900;2023-03-03T04:32:59;35.38;;;18.35;;
25365;SDS011;13315;48.274;-1.900;2023-03-03T04:35:26;38.90;;;17.33;;
25365;SDS011;13315;48.274;-1.900;2023-03-03T04:37:53;40.28;;;18.85;;
25365;SDS011;13315;48.274;-1.900;2023-03-03T04:40:19;35.65;;;18.35;;
25365;SDS011;13315;48.274;-1.900;2023-03-03T04:42:47;40.20;;;18.65;;
25365;SDS011;13315;48.274;-1.900;2023-03-03T04:45:16;42.05;;;18.80;;
25365;SDS011;13315;48.274;-1.900;2023-03-03T04:47:43;38.60;;;18.27;;
25365;SDS011;13315;48.274;-1.900;2023-03-03T04:50:09;44.47;;;18.83;;
25365;SDS011;13315;48.274;-1.900;2023-03-03T04:52:36;38.03;;;18.25;;
25365;SDS011;13315;48.274;-1.900;2023-03-03T04:55:03;46.30;;;18.40;;
25365;SDS011;13315;48.274;-1.900;2023-03-03T04:57:31;43.50;;;19.05;;
25365;SDS011;13315;48.274;-1.900;2023-03-03T04:59:58;41.88;;;19.98;;
25365;SDS011;13315;48.274;-1.900;2023-03-03T05:02:25;31.67;;;17.63;;
25365;SDS011;13315;48.274;-1.900;2023-03-03T05:04:53;46.47;;;18.45;;
25365;SDS011;13315;48.274;-1.900;2023-03-03T05:07:20;38.60;;;17.48;;
25365;SDS011;13315;48.274;-1.900;2023-03-03T05:09:50;36.92;;;18.17;;
25365;SDS011;13315;48.274;-1.900;2023-03-03T05:12:22;43.80;;;20.00;;
25365;SDS011;13315;48.274;-1.900;2023-03-03T05:14:48;40.75;;;20.10;;
25365;SDS011;13315;48.274;-1.900;2023-03-03T05:17:15;48.25;;;20.48;;
25365;SDS011;13315;48.274;-1.900;2023-03-03T05:19:41;41.45;;;19.92;;
25365;SDS011;13315;48.274;-1.900;2023-03-03T05:22:15;48.75;;;21.25;;
25365;SDS011;13315;48.274;-1.900;2023-03-03T05:24:57;41.90;;;19.50;;
25365;SDS011;13315;48.274;-1.900;2023-03-03T05:27:24;44.42;;;22.88;;
25365;SDS011;13315;48.274;-1.900;2023-03-03T05:29:52;51.38;;;21.30;;
25365;SDS011;13315;48.274;-1.900;2023-03-03T05:32:27;55.83;;;23.15;;
25365;SDS011;13315;48.274;-1.900;2023-03-03T05:35:01;43.42;;;20.77;;
25365;SDS011;13315;48.274;-1.900;2023-03-03T05:37:28;48.38;;;22.23;;
25365;SDS011;13315;48.274;-1.900;2023-03-03T05:39:54;49.75;;;21.00;;
25365;SDS011;13315;48.274;-1.900;2023-03-03T05:42:27;53.35;;;20.25;;
25365;SDS011;13315;48.274;-1.900;2023-03-03T05:45:07;56.00;;;23.45;;
25365;SDS011;13315;48.274;-1.900;2023-03-03T05:47:40;51.08;;;22.05;;
25365;SDS011;13315;48.274;-1.900;2023-03-03T05:50:18;56.35;;;24.42;;
25365;SDS011;13315;48.274;-1.900;2023-03-03T05:52:49;52.53;;;22.75;;
25365;SDS011;13315;48.274;-1.900;2023-03-03T05:55:26;47.97;;;22.10;;
25365;SDS011;13315;48.274;-1.900;2023-03-03T05:57:57;53.17;;;20.63;;
25365;SDS011;13315;48.274;-1.900;2023-03-03T06:00:26;64.10;;;24.63;;
25365;SDS011;13315;48.274;-1.900;2023-03-03T06:02:57;55.35;;;23.83;;
25365;SDS011;13315;48.274;-1.900;2023-03-03T06:05:29;53.17;;;24.30;;
25365;SDS011;13315;48.274;-1.900;2023-03-03T06:10:40;55.53;;;24.98;;
25365;SDS011;13315;48.274;-1.900;2023-03-03T06:13:06;49.88;;;24.75;;
25365;SDS011;13315;48.274;-1.900;2023-03-03T06:15:34;60.80;;;26.80;;
25365;SDS011;13315;48.274;-1.900;2023-03-03T06:18:02;62.85;;;25.88;;
25365;SDS011;13315;48.274;-1.900;2023-03-03T06:20:28;57.00;;;26.77;;
25365;SDS011;13315;48.274;-1.900;2023-03-03T06:23:04;60.88;;;24.80;;
25365;SDS011;13315;48.274;-1.900;2023-03-03T06:25:34;54.55;;;24.73;;
25365;SDS011;13315;48.274;-1.900;2023-03-03T06:28:03;64.55;;;25.58;;
25365;SDS011;13315;48.274;-1.900;2023-03-03T06:30:39;54.83;;;25.05;;
25365;SDS011;13315;48.274;-1.900;2023-03-03T06:33:06;62.42;;;25.65;;
25365;SDS011;13315;48.274;-1.900;2023-03-03T06:35:34;58.42;;;25.33;;
25365;SDS011;13315;48.274;-1.900;2023-03-03T06:38:04;55.10;;;24.48;;
25365;SDS011;13315;48.274;-1.900;2023-03-03T06:40:37;57.08;;;24.75;;
25365;SDS011;13315;48.274;-1.900;2023-03-03T06:48:43;54.28;;;24.60;;
25365;SDS011;13315;48.274;-1.900;2023-03-03T06:51:19;58.30;;;25.27;;
25365;SDS011;13315;48.274;-1.900;2023-03-03T06:53:53;56.63;;;25.38;;
25365;SDS011;13315;48.274;-1.900;2023-03-03T06:56:22;59.28;;;25.13;;
25365;SDS011;13315;48.274;-1.900;2023-03-03T06:58:56;65.05;;;27.35;;
25365;SDS011;13315;48.274;-1.900;2023-03-03T07:01:25;58.35;;;25.98;;
25365;SDS011;13315;48.274;-1.900;2023-03-03T07:03:53;55.50;;;24.40;;
25365;SDS011;13315;48.274;-1.900;2023-03-03T07:06:29;57.60;;;23.92;;
25365;SDS011;13315;48.274;-1.900;2023-03-03T07:09:05;60.13;;;26.13;;
25365;SDS011;13315;48.274;-1.900;2023-03-03T07:11:35;60.72;;;27.20;;
25365;SDS011;13315;48.274;-1.900;2023-03-03T07:14:13;63.30;;;26.60;;
25365;SDS011;13315;48.274;-1.900;2023-03-03T07:16:50;58.03;;;25.13;;
25365;SDS011;13315;48.274;-1.900;2023-03-03T07:19:20;64.25;;;27.50;;
25365;SDS011;13315;48.274;-1.900;2023-03-03T07:21:53;61.10;;;27.08;;
25365;SDS011;13315;48.274;-1.900;2023-03-03T07:24:29;62.35;;;26.30;;
25365;SDS011;13315;48.274;-1.900;2023-03-03T07:29:37;59.00;;;25.98;;
25365;SDS011;13315;48.274;-1.900;2023-03-03T07:32:33;62.00;;;26.70;;
25365;SDS011;13315;48.274;-1.900;2023-03-03T07:35:21;67.78;;;27.58;;
25365;SDS011;13315;48.274;-1.900;2023-03-03T07:38:02;68.93;;;27.65;;
25365;SDS011;13315;48.274;-1.900;2023-03-03T07:40:37;65.35;;;25.98;;
25365;SDS011;13315;48.274;-1.900;2023-03-03T07:48:37;54.03;;;25.60;;
25365;SDS011;13315;48.274;-1.900;2023-03-03T07:51:20;63.65;;;26.70;;
25365;SDS011;13315;48.274;-1.900;2023-03-03T07:53:47;56.75;;;25.50;;
25365;SDS011;13315;48.274;-1.900;2023-03-03T07:56:29;52.45;;;24.08;;
25365;SDS011;13315;48.274;-1.900;2023-03-03T07:59:02;55.53;;;24.08;;
25365;SDS011;13315;48.274;-1.900;2023-03-03T08:04:25;64.68;;;26.45;;
25365;SDS011;13315;48.274;-1.900;2023-03-03T08:06:54;52.50;;;24.23;;
25365;SDS011;13315;48.274;-1.900;2023-03-03T08:14:16;48.75;;;23.27;;
25365;SDS011;13315;48.274;-1.900;2023-03-03T08:16:48;53.65;;;23.65;;
25365;SDS011;13315;48.274;-1.900;2023-03-03T08:19:14;46.22;;;21.88;;
25365;SDS011;13315;48.274;-1.900;2023-03-03T08:21:42;54.17;;;24.50;;
25365;SDS011;13315;48.274;-1.900;2023-03-03T08:24:09;53.80;;;22.70;;
25365;SDS011;13315;48.274;-1.900;2023-03-03T08:26:35;50.10;;;22.00;;
25365;SDS011;13315;48.274;-1.900;2023-03-03T08:29:01;51.70;;;23.58;;
25365;SDS011;13315;48.274;-1.900;2023-03-03T08:31:27;53.00;;;22.92;;
25365;SDS011;13315;48.274;-1.900;2023-03-03T08:33:53;47.80;;;22.75;;
25365;SDS011;13315;48.274;-1.900;2023-03-03T08:36:20;44.40;;;22.27;;
25365;SDS011;13315;48.274;-1.900;2023-03-03T08:38:47;57.28;;;23.42;;
25365;SDS011;13315;48.274;-1.900;2023-03-03T08:41:13;45.17;;;21.70;;
25365;SDS011;13315;48.274;-1.900;2023-03-03T08:43:39;45.55;;;22.20;;
25365;SDS011;13315;48.274;-1.900;2023-03-03T08:46:05;44.55;;;22.35;;
25365;SDS011;13315;48.274;-1.900;2023-03-03T08:51:00;44.35;;;21.38;;
25365;SDS011;13315;48.274;-1.900;2023-03-03T08:53:26;44.17;;;21.27;;
25365;SDS011;13315;48.274;-1.900;2023-03-03T08:55:53;48.17;;;22.30;;
25365;SDS011;13315;48.274;-1.900;2023-03-03T08:58:19;53.13;;;22.40;;
25365;SDS011;13315;48.274;-1.900;2023-03-03T09:00:46;47.67;;;21.55;;
25365;SDS011;13315;48.274;-1.900;2023-03-03T09:03:12;43.33;;;21.65;;
25365;SDS011;13315;48.274;-1.900;2023-03-03T09:05:38;43.53;;;21.42;;
25365;SDS011;13315;48.274;-1.900;2023-03-03T09:08:05;46.15;;;22.15;;
25365;SDS011;13315;48.274;-1.900;2023-03-03T09:10:31;47.25;;;20.23;;
25365;SDS011;13315;48.274;-1.900;2023-03-03T09:13:02;50.78;;;20.73;;
25365;SDS011;13315;48.274;-1.900;2023-03-03T09:15:30;41.15;;;18.67;;
25365;SDS011;13315;48.274;-1.900;2023-03-03T09:17:58;49.22;;;20.67;;
25365;SDS011;13315;48.274;-1.900;2023-03-03T09:20:35;39.45;;;19.48;;
25365;SDS011;13315;48.274;-1.900;2023-03-03T09:23:35;34.83;;;16.67;;
25365;SDS011;13315;48.274;-1.900;2023-03-03T09:25:55;34.33;;;17.98;;
25365;SDS011;13315;48.274;-1.900;2023-03-03T09:30:48;28.67;;;16.73;;
25365;SDS011;13315;48.274;-1.900;2023-03-03T09:33:25;31.77;;;16.15;;
25365;SDS011;13315;48.274;-1.900;2023-03-03T09:36:00;31.35;;;16.13;;
25365;SDS011;13315;48.274;-1.900;2023-03-03T09:38:32;29.60;;;14.95;;
25365;SDS011;13315;48.274;-1.900;2023-03-03T09:43:41;25.45;;;14.40;;
25365;SDS011;13315;48.274;-1.900;2023-03-03T09:48:51;27.08;;;13.88;;
25365;SDS011;13315;48.274;-1.900;2023-03-03T09:56:51;28.67;;;13.38;;
25365;SDS011;13315;48.274;-1.900;2023-03-03T10:02:19;25.85;;;13.07;;
25365;SDS011;13315;48.274;-1.900;2023-03-03T10:12:27;19.25;;;11.27;;
25365;SDS011;13315;48.274;-1.900;2023-03-03T10:17:24;18.70;;;11.38;;
25365;SDS011;13315;48.274;-1.900;2023-03-03T10:46:33;20.15;;;10.35;;
25365;SDS011;13315;48.274;-1.900;2023-03-03T10:56:36;23.17;;;11.60;;
25365;SDS011;13315;48.274;-1.900;2023-03-03T11:06:57;17.80;;;10.10;;
25365;SDS011;13315;48.274;-1.900;2023-03-03T11:14:43;20.60;;;10.38;;
25365;SDS011;13315;48.274;-1.900;2023-03-03T11:17:15;18.65;;;10.57;;
25365;SDS011;13315;48.274;-1.900;2023-03-03T11:22:27;18.25;;;9.65;;
25365;SDS011;13315;48.274;-1.900;2023-03-03T11:25:11;16.05;;;9.60;;
25365;SDS011;13315;48.274;-1.900;2023-03-03T11:33:21;21.38;;;11.05;;
25365;SDS011;13315;48.274;-1.900;2023-03-03T11:38:31;24.92;;;10.73;;
25365;SDS011;13315;48.274;-1.900;2023-03-03T11:46:05;20.95;;;10.60;;
25365;SDS011;13315;48.274;-1.900;2023-03-03T11:53:35;17.33;;;10.52;;
25365;SDS011;13315;48.274;-1.900;2023-03-03T11:56:48;20.60;;;9.68;;
25365;SDS011;13315;48.274;-1.900;2023-03-03T12:03:52;21.20;;;11.70;;
25365;SDS011;13315;48.274;-1.900;2023-03-03T12:16:57;19.02;;;10.05;;
25365;SDS011;13315;48.274;-1.900;2023-03-03T12:19:38;16.85;;;9.93;;
25365;SDS011;13315;48.274;-1.900;2023-03-03T12:27:31;17.85;;;10.25;;
25365;SDS011;13315;48.274;-1.900;2023-03-03T12:30:12;20.38;;;10.10;;
25365;SDS011;13315;48.274;-1.900;2023-03-03T12:38:03;18.25;;;10.02;;
25365;SDS011;13315;48.274;-1.900;2023-03-03T12:40:35;19.55;;;10.38;;
25365;SDS011;13315;48.274;-1.900;2023-03-03T12:43:06;17.55;;;9.27;;
25365;SDS011;13315;48.274;-1.900;2023-03-03T12:48:39;15.55;;;9.98;;
25365;SDS011;13315;48.274;-1.900;2023-03-03T12:51:09;17.45;;;9.65;;
25365;SDS011;13315;48.274;-1.900;2023-03-03T12:53:45;17.02;;;9.50;;
25365;SDS011;13315;48.274;-1.900;2023-03-03T12:56:12;16.65;;;9.93;;
25365;SDS011;13315;48.274;-1.900;2023-03-03T13:06:54;17.17;;;10.07;;
25365;SDS011;13315;48.274;-1.900;2023-03-03T13:12:00;17.02;;;10.57;;
25365;SDS011;13315;48.274;-1.900;2023-03-03T13:14:31;15.15;;;8.43;;
25365;SDS011;13315;48.274;-1.900;2023-03-03T13:19:28;15.23;;;9.45;;
25365;SDS011;13315;48.274;-1.900;2023-03-03T13:22:05;16.35;;;9.82;;
25365;SDS011;13315;48.274;-1.900;2023-03-03T13:29:41;17.13;;;9.88;;
25365;SDS011;13315;48.274;-1.900;2023-03-03T13:32:11;21.70;;;10.65;;
25365;SDS011;13315;48.274;-1.900;2023-03-03T13:39:33;15.30;;;9.50;;
25365;SDS011;13315;48.274;-1.900;2023-03-03T13:42:03;16.63;;;10.27;;
25365;SDS011;13315;48.274;-1.900;2023-03-03T13:44:35;16.38;;;10.00;;
25365;SDS011;13315;48.274;-1.900;2023-03-03T13:47:05;19.20;;;11.13;;
25365;SDS011;13315;48.274;-1.900;2023-03-03T14:04:47;15.65;;;8.70;;
25365;SDS011;13315;48.274;-1.900;2023-03-03T14:07:22;13.00;;;8.45;;
25365;SDS011;13315;48.274;-1.900;2023-03-03T14:12:36;13.15;;;8.15;;
25365;SDS011;13315;48.274;-1.900;2023-03-03T14:15:37;14.77;;;8.50;;
25365;SDS011;13315;48.274;-1.900;2023-03-03T14:20:32;13.27;;;7.63;;
25365;SDS011;13315;48.274;-1.900;2023-03-03T14:23:01;12.50;;;7.05;;
25365;SDS011;13315;48.274;-1.900;2023-03-03T14:25:48;9.80;;;6.60;;
25365;SDS011;13315;48.274;-1.900;2023-03-03T14:28:20;11.90;;;6.63;;
25365;SDS011;13315;48.274;-1.900;2023-03-03T14:30:47;11.65;;;6.72;;
25365;SDS011;13315;48.274;-1.900;2023-03-03T14:35:40;9.88;;;5.95;;
25365;SDS011;13315;48.274;-1.900;2023-03-03T14:40:34;9.23;;;5.93;;
25365;SDS011;13315;48.274;-1.900;2023-03-03T14:43:02;7.38;;;5.32;;
25365;SDS011;13315;48.274;-1.900;2023-03-03T14:45:38;11.18;;;5.45;;
25365;SDS011;13315;48.274;-1.900;2023-03-03T14:48:17;8.35;;;4.78;;
25365;SDS011;13315;48.274;-1.900;2023-03-03T14:50:56;9.57;;;4.97;;
25365;SDS011;13315;48.274;-1.900;2023-03-03T14:53:30;9.82;;;5.30;;
25365;SDS011;13315;48.274;-1.900;2023-03-03T14:56:13;7.10;;;4.63;;
25365;SDS011;13315;48.274;-1.900;2023-03-03T14:58:40;9.68;;;5.13;;
25365;SDS011;13315;48.274;-1.900;2023-03-03T15:04:01;7.28;;;4.53;;
25365;SDS011;13315;48.274;-1.900;2023-03-03T15:06:29;9.18;;;4.45;;
25365;SDS011;13315;48.274;-1.900;2023-03-03T15:08:55;5.90;;;4.35;;
25365;SDS011;13315;48.274;-1.900;2023-03-03T15:11:26;7.25;;;4.00;;
25365;SDS011;13315;48.274;-1.900;2023-03-03T15:13:52;9.27;;;5.15;;
25365;SDS011;13315;48.274;-1.900;2023-03-03T15:16:22;7.47;;;4.55;;
25365;SDS011;13315;48.274;-1.900;2023-03-03T15:22:25;6.60;;;4.53;;
25365;SDS011;13315;48.274;-1.900;2023-03-03T15:24:52;6.82;;;4.03;;
25365;SDS011;13315;48.274;-1.900;2023-03-03T15:27:30;7.05;;;4.30;;
25365;SDS011;13315;48.274;-1.900;2023-03-03T15:30:00;8.05;;;4.22;;
25365;SDS011;13315;48.274;-1.900;2023-03-03T15:32:45;7.70;;;3.55;;
25365;SDS011;13315;48.274;-1.900;2023-03-03T15:35:24;5.60;;;3.28;;
25365;SDS011;13315;48.274;-1.900;2023-03-03T15:45:44;9.15;;;3.47;;
25365;SDS011;13315;48.274;-1.900;2023-03-03T15:59:26;5.72;;;3.13;;
25365;SDS011;13315;48.274;-1.900;2023-03-03T16:04:42;4.03;;;2.30;;
25365;SDS011;13315;48.274;-1.900;2023-03-03T16:09:43;7.80;;;3.08;;
25365;SDS011;13315;48.274;-1.900;2023-03-03T16:15:04;4.95;;;2.60;;
25365;SDS011;13315;48.274;-1.900;2023-03-03T16:17:47;4.15;;;2.80;;
25365;SDS011;13315;48.274;-1.900;2023-03-03T16:27:57;4.68;;;2.60;;
25365;SDS011;13315;48.274;-1.900;2023-03-03T16:35:23;4.00;;;2.65;;
25365;SDS011;13315;48.274;-1.900;2023-03-03T16:40:23;4.55;;;2.70;;
25365;SDS011;13315;48.274;-1.900;2023-03-03T16:45:35;3.55;;;2.85;;
25365;SDS011;13315;48.274;-1.900;2023-03-03T16:48:13;3.70;;;2.50;;
25365;SDS011;13315;48.274;-1.900;2023-03-03T16:53:36;3.88;;;2.65;;
25365;SDS011;13315;48.274;-1.900;2023-03-03T16:56:07;4.60;;;2.60;;
25365;SDS011;13315;48.274;-1.900;2023-03-03T16:58:46;3.13;;;2.58;;
25365;SDS011;13315;48.274;-1.900;2023-03-03T17:06:19;4.03;;;2.65;;
25365;SDS011;13315;48.274;-1.900;2023-03-03T17:08:48;4.70;;;2.88;;
25365;SDS011;13315;48.274;-1.900;2023-03-03T17:11:26;3.67;;;2.78;;
25365;SDS011;13315;48.274;-1.900;2023-03-03T17:14:03;5.57;;;3.15;;
25365;SDS011;13315;48.274;-1.900;2023-03-03T17:17:15;8.32;;;3.97;;
25365;SDS011;13315;48.274;-1.900;2023-03-03T17:25:10;10.48;;;4.15;;
25365;SDS011;13315;48.274;-1.900;2023-03-03T17:35:10;7.90;;;3.85;;
25365;SDS011;13315;48.274;-1.900;2023-03-03T17:43:04;4.95;;;2.90;;
25365;SDS011;13315;48.274;-1.900;2023-03-03T17:45:35;8.18;;;3.53;;
25365;SDS011;13315;48.274;-1.900;2023-03-03T17:51:04;6.35;;;3.47;;
25365;SDS011;13315;48.274;-1.900;2023-03-03T18:09:12;6.38;;;3.50;;
25365;SDS011;13315;48.274;-1.900;2023-03-03T18:14:28;7.82;;;3.42;;
25365;SDS011;13315;48.274;-1.900;2023-03-03T18:17:10;4.60;;;3.08;;
25365;SDS011;13315;48.274;-1.900;2023-03-03T18:22:16;6.13;;;3.28;;
25365;SDS011;13315;48.274;-1.900;2023-03-03T18:32:44;5.63;;;3.55;;
25365;SDS011;13315;48.274;-1.900;2023-03-03T18:35:30;4.85;;;3.40;;
25365;SDS011;13315;48.274;-1.900;2023-03-03T18:40:51;3.20;;;2.90;;
25365;SDS011;13315;48.274;-1.900;2023-03-03T18:46:02;7.15;;;3.75;;
25365;SDS011;13315;48.274;-1.900;2023-03-03T18:59:07;5.95;;;3.30;;
25365;SDS011;13315;48.274;-1.900;2023-03-03T19:01:34;5.85;;;3.30;;
25365;SDS011;13315;48.274;-1.900;2023-03-03T19:04:11;5.22;;;2.88;;
25365;SDS011;13315;48.274;-1.900;2023-03-03T19:09:09;6.75;;;2.92;;
25365;SDS011;13315;48.274;-1.900;2023-03-03T19:11:37;3.33;;;3.00;;
25365;SDS011;13315;48.274;-1.900;2023-03-03T19:14:17;3.80;;;3.28;;
25365;SDS011;13315;48.274;-1.900;2023-03-03T19:16:44;6.43;;;3.63;;
25365;SDS011;13315;48.274;-1.900;2023-03-03T19:19:12;4.10;;;3.30;;
25365;SDS011;13315;48.274;-1.900;2023-03-03T19:21:39;4.03;;;3.43;;
25365;SDS011;13315;48.274;-1.900;2023-03-03T19:26:43;3.25;;;2.95;;
25365;SDS011;13315;48.274;-1.900;2023-03-03T19:29:22;6.70;;;3.28;;
25365;SDS011;13315;48.274;-1.900;2023-03-03T19:31:57;7.05;;;3.35;;
25365;SDS011;13315;48.274;-1.900;2023-03-03T19:34:41;4.63;;;2.90;;
25365;SDS011;13315;48.274;-1.900;2023-03-03T19:39:44;14.23;;;3.72;;
25365;SDS011;13315;48.274;-1.900;2023-03-03T19:44:42;3.80;;;3.25;;
25365;SDS011;13315;48.274;-1.900;2023-03-03T19:54:51;4.88;;;3.35;;
25365;SDS011;13315;48.274;-1.900;2023-03-03T19:57:23;4.70;;;3.13;;
25365;SDS011;13315;48.274;-1.900;2023-03-03T20:00:02;4.80;;;3.50;;
25365;SDS011;13315;48.274;-1.900;2023-03-03T20:05:06;3.95;;;3.30;;
25365;SDS011;13315;48.274;-1.900;2023-03-03T20:07:37;5.20;;;3.58;;
25365;SDS011;13315;48.274;-1.900;2023-03-03T20:12:36;10.20;;;4.25;;
25365;SDS011;13315;48.274;-1.900;2023-03-03T20:28:02;6.43;;;3.85;;
25365;SDS011;13315;48.274;-1.900;2023-03-03T20:33:04;8.13;;;4.80;;
25365;SDS011;13315;48.274;-1.900;2023-03-03T20:35:38;5.65;;;4.97;;
25365;SDS011;13315;48.274;-1.900;2023-03-03T20:44:05;10.73;;;3.92;;
25365;SDS011;13315;48.274;-1.900;2023-03-03T20:46:06;8.30;;;4.18;;
25365;SDS011;13315;48.274;-1.900;2023-03-03T20:53:43;6.22;;;4.38;;
25365;SDS011;13315;48.274;-1.900;2023-03-03T21:01:11;5.10;;;4.20;;
25365;SDS011;13315;48.274;-1.900;2023-03-03T21:03:40;5.70;;;4.40;;
25365;SDS011;13315;48.274;-1.900;2023-03-03T21:06:14;8.98;;;4.30;;
25365;SDS011;13315;48.274;-1.900;2023-03-03T21:11:18;8.70;;;4.72;;
25365;SDS011;13315;48.274;-1.900;2023-03-03T21:13:48;5.30;;;4.18;;
25365;SDS011;13315;48.274;-1.900;2023-03-03T21:18:54;7.78;;;4.50;;
25365;SDS011;13315;48.274;-1.900;2023-03-03T21:21:21;5.90;;;4.68;;
25365;SDS011;13315;48.274;-1.900;2023-03-03T21:23:48;7.45;;;5.30;;
25365;SDS011;13315;48.274;-1.900;2023-03-03T21:26:42;7.40;;;5.13;;
25365;SDS011;13315;48.274;-1.900;2023-03-03T21:29:00;5.40;;;4.50;;
25365;SDS011;13315;48.274;-1.900;2023-03-03T21:31:27;9.50;;;4.70;;
25365;SDS011;13315;48.274;-1.900;2023-03-03T21:33:53;6.13;;;4.32;;
25365;SDS011;13315;48.274;-1.900;2023-03-03T21:39:17;6.75;;;5.20;;
25365;SDS011;13315;48.274;-1.900;2023-03-03T21:41:51;10.82;;;5.15;;
25365;SDS011;13315;48.274;-1.900;2023-03-03T21:46:54;7.47;;;5.00;;